createdAt,value
2019-03-03T00:00:38.600Z,99.9
2019-03-03T00:01:47.850Z,99.9
2019-03-03T00:02:57.112Z,99.9
2019-03-03T00:04:06.368Z,99.9
2019-03-03T00:05:15.591Z,99.9
2019-03-03T00:06:24.852Z,99.9
2019-03-03T00:07:34.106Z,99.9
2019-03-03T00:08:43.351Z,99.9
2019-03-03T00:09:52.599Z,99.9
2019-03-03T00:11:01.858Z,99.9
2019-03-03T00:12:11.114Z,99.9
2019-03-03T00:13:20.366Z,99.9
2019-03-03T00:14:29.678Z,99.9
2019-03-03T00:15:38.857Z,99.9
2019-03-03T00:16:48.118Z,99.9
2019-03-03T00:17:57.369Z,99.9
2019-03-03T00:19:06.773Z,99.9
2019-03-03T00:20:16.003Z,99.9
2019-03-03T00:21:25.144Z,99.9
2019-03-03T00:22:34.394Z,99.9
2019-03-03T00:23:43.649Z,99.9
2019-03-03T00:24:52.907Z,99.9
2019-03-03T00:26:02.162Z,99.9
2019-03-03T00:27:11.474Z,99.9
2019-03-03T00:28:20.673Z,99.9
2019-03-03T00:29:29.923Z,99.9
2019-03-03T00:30:39.180Z,99.9
2019-03-03T00:31:48.445Z,99.9
2019-03-03T00:32:57.695Z,99.9
2019-03-03T00:34:06.955Z,99.9
2019-03-03T00:35:16.228Z,99.9
2019-03-03T00:36:25.460Z,99.9
2019-03-03T00:37:34.728Z,99.9
2019-03-03T00:38:43.970Z,99.9
2019-03-03T00:39:53.290Z,99.9
2019-03-03T00:41:02.527Z,99.9
2019-03-03T00:42:11.732Z,99.9
2019-03-03T00:43:20.980Z,99.9
2019-03-03T00:44:30.243Z,99.9
2019-03-03T00:45:39.511Z,99.9
2019-03-03T00:46:48.770Z,99.9
2019-03-03T00:47:58.014Z,99.9
2019-03-03T00:49:07.279Z,99.9
2019-03-03T00:50:16.552Z,99.9
2019-03-03T00:51:25.843Z,99.9
2019-03-03T00:52:35.079Z,99.9
2019-03-03T00:53:44.328Z,99.9
2019-03-03T00:54:53.598Z,99.9
2019-03-03T00:56:02.864Z,99.9
2019-03-03T00:57:12.217Z,99.9
2019-03-03T00:58:21.371Z,99.9
2019-03-03T00:59:30.629Z,99.9
2019-03-03T01:00:39.895Z,99.9
2019-03-03T01:01:49.151Z,99.9
2019-03-03T01:02:58.415Z,99.9
2019-03-03T01:04:07.688Z,99.9
2019-03-03T01:05:16.967Z,99.9
2019-03-03T01:06:26.202Z,99.9
2019-03-03T01:07:35.524Z,99.9
2019-03-03T01:08:44.736Z,99.9
2019-03-03T01:09:53.997Z,99.9
2019-03-03T01:11:03.271Z,99.9
2019-03-03T01:12:13.526Z,99.9
2019-03-03T01:13:21.804Z,99.9
2019-03-03T01:14:31.102Z,99.9
2019-03-03T01:15:40.317Z,99.9
2019-03-03T01:16:49.581Z,99.9
2019-03-03T01:17:58.858Z,99.9
2019-03-03T01:19:08.125Z,99.9
2019-03-03T01:20:17.600Z,99.9
2019-03-03T01:21:26.665Z,99.9
2019-03-03T01:22:35.916Z,99.9
2019-03-03T01:23:45.187Z,99.9
2019-03-03T01:24:54.450Z,99.9
2019-03-03T01:26:03.712Z,99.9
2019-03-03T01:27:13.051Z,99.9
2019-03-03T01:28:22.238Z,99.9
2019-03-03T01:29:31.502Z,99.9
2019-03-03T01:30:40.802Z,99.9
2019-03-03T01:31:50.062Z,99.9
2019-03-03T01:32:59.296Z,99.9
2019-03-03T01:34:08.581Z,99.9
2019-03-03T01:35:17.833Z,99.9
2019-03-03T01:36:27.074Z,99.9
2019-03-03T01:37:36.331Z,99.9
2019-03-03T01:38:45.594Z,99.9
2019-03-03T01:39:54.888Z,99.9
2019-03-03T01:41:06.414Z,99.9
2019-03-03T01:42:13.390Z,99.9
2019-03-03T01:43:22.664Z,99.9
2019-03-03T01:44:31.934Z,99.9
2019-03-03T01:45:41.218Z,99.9
2019-03-03T01:46:50.420Z,99.9
2019-03-03T01:47:59.696Z,99.9
2019-03-03T01:49:08.973Z,99.9
2019-03-03T01:50:18.207Z,99.9
2019-03-03T01:51:27.545Z,99.9
2019-03-03T01:52:36.746Z,99.9
2019-03-03T01:53:46.057Z,99.9
2019-03-03T01:54:55.258Z,99.9
2019-03-03T01:56:04.519Z,99.9
2019-03-03T01:57:13.832Z,99.9
2019-03-03T01:58:23.037Z,99.9
2019-03-03T01:59:32.332Z,99.9
2019-03-03T02:00:41.572Z,99.9
2019-03-03T02:01:50.850Z,99.9
2019-03-03T02:03:00.089Z,99.9
2019-03-03T02:04:09.344Z,99.9
2019-03-03T02:05:18.620Z,99.9
2019-03-03T02:06:27.876Z,99.9
2019-03-03T02:07:37.138Z,99.9
2019-03-03T02:08:46.391Z,99.9
2019-03-03T02:09:55.657Z,99.9
2019-03-03T02:11:04.912Z,99.9
2019-03-03T02:12:14.179Z,99.9
2019-03-03T02:13:23.439Z,99.9
2019-03-03T02:14:32.719Z,99.9
2019-03-03T02:15:41.976Z,99.9
2019-03-03T02:16:51.243Z,99.9
2019-03-03T02:18:00.707Z,99.9
2019-03-03T02:19:09.789Z,99.9
2019-03-03T02:20:19.031Z,99.9
2019-03-03T02:21:28.303Z,99.9
2019-03-03T02:22:37.570Z,99.9
2019-03-03T02:23:46.912Z,99.9
2019-03-03T02:24:56.125Z,99.9
2019-03-03T02:26:05.384Z,99.9
2019-03-03T02:27:14.674Z,99.9
2019-03-03T02:28:23.918Z,99.9
2019-03-03T02:29:33.417Z,99.9
2019-03-03T02:30:42.468Z,99.9
2019-03-03T02:31:51.840Z,99.9
2019-03-03T02:33:01.074Z,99.9
2019-03-03T02:34:10.231Z,99.9
2019-03-03T02:35:19.484Z,99.9
2019-03-03T02:36:28.796Z,99.9
2019-03-03T02:37:38.021Z,99.9
2019-03-03T02:38:47.345Z,99.9
2019-03-03T02:39:56.578Z,99.9
2019-03-03T02:41:05.849Z,99.9
2019-03-03T02:42:15.087Z,99.9
2019-03-03T02:43:24.366Z,99.9
2019-03-03T02:44:33.638Z,99.9
2019-03-03T02:45:42.899Z,99.9
2019-03-03T02:46:52.214Z,99.9
2019-03-03T02:48:01.448Z,99.9
2019-03-03T02:49:10.708Z,99.9
2019-03-03T02:50:19.991Z,99.9
2019-03-03T02:51:29.298Z,99.9
2019-03-03T02:52:38.558Z,99.9
2019-03-03T02:53:47.790Z,99.9
2019-03-03T02:54:57.075Z,99.9
2019-03-03T02:56:06.461Z,99.9
2019-03-03T02:57:15.583Z,99.9
2019-03-03T02:58:24.906Z,99.9
2019-03-03T02:59:34.141Z,99.9
2019-03-03T03:00:43.540Z,99.9
2019-03-03T03:01:52.670Z,99.9
2019-03-03T03:03:01.952Z,99.9
2019-03-03T03:04:11.258Z,99.9
2019-03-03T03:05:20.505Z,99.9
2019-03-03T03:06:29.748Z,99.9
2019-03-03T03:07:39.038Z,99.9
2019-03-03T03:08:48.290Z,99.9
2019-03-03T03:09:57.573Z,99.9
2019-03-03T03:11:06.850Z,99.9
2019-03-03T03:12:16.110Z,99.9
2019-03-03T03:13:25.405Z,99.9
2019-03-03T03:14:34.779Z,99.9
2019-03-03T03:15:43.950Z,99.9
2019-03-03T03:16:53.281Z,99.9
2019-03-03T03:18:02.655Z,99.9
2019-03-03T03:19:11.741Z,99.9
2019-03-03T03:20:20.993Z,99.9
2019-03-03T03:21:30.288Z,99.9
2019-03-03T03:22:39.580Z,99.9
2019-03-03T03:23:48.837Z,99.9
2019-03-03T03:24:58.103Z,99.9
2019-03-03T03:26:07.380Z,99.9
2019-03-03T03:27:16.663Z,99.9
2019-03-03T03:28:26.014Z,99.9
2019-03-03T03:29:35.204Z,99.9
2019-03-03T03:30:44.475Z,99.9
2019-03-03T03:31:53.817Z,99.9
2019-03-03T03:33:03.070Z,99.9
2019-03-03T03:34:12.327Z,99.9
2019-03-03T03:35:21.569Z,99.9
2019-03-03T03:36:30.845Z,99.9
2019-03-03T03:37:40.137Z,99.9
2019-03-03T03:38:49.399Z,99.9
2019-03-03T03:39:58.741Z,99.9
2019-03-03T03:41:07.994Z,99.9
2019-03-03T03:42:17.234Z,99.9
2019-03-03T03:43:26.517Z,99.9
2019-03-03T03:44:35.788Z,99.9
2019-03-03T03:45:45.104Z,99.9
2019-03-03T03:46:54.341Z,99.9
2019-03-03T03:48:03.654Z,99.9
2019-03-03T03:49:12.926Z,99.9
2019-03-03T03:50:22.302Z,99.9
2019-03-03T03:51:31.520Z,99.9
2019-03-03T03:52:40.739Z,99.9
2019-03-03T03:53:50.063Z,99.9
2019-03-03T03:54:59.308Z,99.9
2019-03-03T03:56:08.721Z,99.9
2019-03-03T03:57:17.877Z,99.9
2019-03-03T03:58:27.147Z,99.9
2019-03-03T04:00:45.716Z,99.9
2019-03-03T04:01:55.017Z,99.9
2019-03-03T04:03:04.267Z,99.9
2019-03-03T04:04:13.599Z,99.9
2019-03-03T04:05:22.915Z,99.9
2019-03-03T04:06:32.151Z,99.9
2019-03-03T04:07:41.408Z,99.9
2019-03-03T04:08:50.808Z,99.9
2019-03-03T04:10:00.003Z,99.9
2019-03-03T04:11:09.263Z,99.9
2019-03-03T04:12:18.594Z,99.9
2019-03-03T04:13:27.839Z,99.9
2019-03-03T04:14:37.166Z,99.9
2019-03-03T04:15:46.449Z,99.9
2019-03-03T04:16:55.716Z,99.9
2019-03-03T04:18:04.984Z,99.9
2019-03-03T04:19:14.348Z,99.9
2019-03-03T04:20:23.571Z,99.9
2019-03-03T04:21:32.915Z,99.9
2019-03-03T04:22:42.204Z,99.9
2019-03-03T04:23:51.406Z,99.9
2019-03-03T04:25:00.694Z,99.9
2019-03-03T04:26:10.049Z,99.9
2019-03-03T04:27:19.351Z,99.9
2019-03-03T04:28:28.575Z,99.9
2019-03-03T04:29:37.853Z,99.9
2019-03-03T04:30:47.159Z,99.9
2019-03-03T04:31:56.484Z,99.9
2019-03-03T04:33:05.734Z,99.9
2019-03-03T04:34:17.555Z,99.9
2019-03-03T04:35:24.326Z,99.9
2019-03-03T04:36:33.604Z,99.9
2019-03-03T04:37:42.938Z,99.9
2019-03-03T04:38:52.198Z,99.9
2019-03-03T04:40:01.506Z,99.9
2019-03-03T04:41:10.830Z,99.9
2019-03-03T04:42:20.099Z,99.9
2019-03-03T04:43:29.368Z,99.9
2019-03-03T04:44:38.735Z,99.9
2019-03-03T04:45:47.991Z,99.9
2019-03-03T04:46:57.258Z,99.9
2019-03-03T04:48:06.656Z,99.9
2019-03-03T04:49:15.864Z,99.9
2019-03-03T04:50:25.239Z,99.9
2019-03-03T04:51:34.440Z,99.9
2019-03-03T04:52:43.773Z,99.9
2019-03-03T04:53:53.039Z,99.9
2019-03-03T04:55:02.359Z,99.9
2019-03-03T04:56:11.640Z,99.9
2019-03-03T04:57:20.933Z,99.9
2019-03-03T04:58:30.230Z,99.9
2019-03-03T04:59:39.526Z,99.9
2019-03-03T05:00:48.824Z,99.9
2019-03-03T05:01:58.157Z,99.9
2019-03-03T05:03:07.421Z,99.9
2019-03-03T05:04:16.724Z,99.9
2019-03-03T05:05:26.014Z,99.9
2019-03-03T05:06:35.325Z,99.9
2019-03-03T05:07:44.607Z,99.9
2019-03-03T05:08:53.917Z,99.9
2019-03-03T05:10:03.259Z,99.9
2019-03-03T05:11:12.521Z,99.9
2019-03-03T05:12:21.833Z,99.9
2019-03-03T05:13:31.177Z,99.9
2019-03-03T05:14:40.470Z,99.9
2019-03-03T05:15:49.733Z,99.9
2019-03-03T05:16:59.020Z,99.9
2019-03-03T05:18:08.333Z,99.9
2019-03-03T05:19:17.626Z,99.9
2019-03-03T05:20:26.964Z,99.9
2019-03-03T05:21:36.236Z,99.9
2019-03-03T05:22:45.582Z,99.9
2019-03-03T05:23:54.852Z,99.9
2019-03-03T05:25:04.141Z,99.9
2019-03-03T05:26:13.459Z,99.9
2019-03-03T05:27:22.753Z,99.9
2019-03-03T05:28:32.050Z,99.9
2019-03-03T05:29:41.370Z,99.9
2019-03-03T05:30:50.682Z,99.9
2019-03-03T05:31:59.963Z,99.9
2019-03-03T05:33:09.363Z,99.9
2019-03-03T05:34:18.601Z,99.9
2019-03-03T05:35:27.871Z,99.9
2019-03-03T05:36:37.202Z,99.9
2019-03-03T05:37:46.549Z,99.9
2019-03-03T05:38:55.798Z,99.9
2019-03-03T05:40:05.089Z,99.9
2019-03-03T05:41:14.413Z,99.9
2019-03-03T05:42:23.713Z,99.9
2019-03-03T05:43:33.019Z,99.9
2019-03-03T05:44:42.346Z,99.9
2019-03-03T05:45:51.641Z,99.9
2019-03-03T05:47:00.926Z,99.9
2019-03-03T05:48:10.246Z,99.9
2019-03-03T05:49:19.537Z,99.9
2019-03-03T05:50:28.867Z,99.9
2019-03-03T05:51:38.160Z,99.9
2019-03-03T05:52:47.539Z,99.9
2019-03-03T05:53:56.932Z,99.9
2019-03-03T05:55:06.104Z,99.9
2019-03-03T05:56:16.431Z,99.9
2019-03-03T05:57:24.709Z,99.9
2019-03-03T05:58:34.015Z,99.9
2019-03-03T05:59:43.323Z,99.9
2019-03-03T06:00:52.785Z,99.9
2019-03-03T06:02:01.946Z,99.9
2019-03-03T06:03:11.302Z,99.9
2019-03-03T06:04:20.558Z,99.9
2019-03-03T06:05:29.871Z,99.9
2019-03-03T06:06:39.184Z,99.9
2019-03-03T06:07:48.510Z,99.9
2019-03-03T06:08:57.920Z,99.9
2019-03-03T06:10:07.127Z,99.9
2019-03-03T06:11:16.445Z,99.9
2019-03-03T06:12:25.758Z,99.9
2019-03-03T06:13:35.084Z,99.9
2019-03-03T06:14:44.373Z,99.9
2019-03-03T06:15:53.697Z,99.9
2019-03-03T06:17:02.991Z,99.9
2019-03-03T06:18:12.329Z,99.9
2019-03-03T06:19:21.688Z,99.9
2019-03-03T06:20:30.931Z,99.9
2019-03-03T06:21:40.277Z,99.9
2019-03-03T06:22:49.563Z,99.9
2019-03-03T06:23:58.883Z,99.9
2019-03-03T06:25:08.244Z,99.9
2019-03-03T06:26:17.563Z,99.9
2019-03-03T06:27:26.835Z,99.9
2019-03-03T06:28:36.153Z,99.9
2019-03-03T06:29:45.486Z,99.9
2019-03-03T06:30:54.783Z,99.9
2019-03-03T06:32:04.114Z,99.9
2019-03-03T06:33:13.416Z,99.9
2019-03-03T06:34:22.780Z,99.9
2019-03-03T06:35:32.090Z,99.9
2019-03-03T06:36:41.450Z,99.9
2019-03-03T06:37:50.822Z,99.9
2019-03-03T06:39:00.007Z,99.9
2019-03-03T06:40:09.339Z,99.9
2019-03-03T06:41:18.681Z,99.9
2019-03-03T06:42:28.027Z,99.9
2019-03-03T06:43:37.315Z,99.9
2019-03-03T06:44:46.644Z,99.9
2019-03-03T06:45:56.005Z,99.9
2019-03-03T06:47:05.284Z,99.9
2019-03-03T06:48:14.722Z,99.9
2019-03-03T06:49:23.933Z,99.9
2019-03-03T06:50:33.253Z,99.9
2019-03-03T06:51:42.575Z,99.9
2019-03-03T06:52:51.966Z,99.9
2019-03-03T06:54:01.322Z,99.9
2019-03-03T06:55:10.548Z,99.9
2019-03-03T06:56:19.916Z,99.9
2019-03-03T06:57:29.198Z,99.9
2019-03-03T06:58:38.539Z,99.9
2019-03-03T06:59:47.878Z,99.9
2019-03-03T07:00:57.190Z,99.9
2019-03-03T07:02:06.520Z,99.9
2019-03-03T07:03:15.922Z,99.9
2019-03-03T07:04:25.208Z,99.9
2019-03-03T07:05:34.509Z,99.9
2019-03-03T07:06:43.846Z,99.9
2019-03-03T07:07:53.177Z,99.9
2019-03-03T07:09:02.565Z,99.9
2019-03-03T07:10:11.891Z,99.9
2019-03-03T07:11:21.177Z,99.9
2019-03-03T07:21:37.033Z,99.9
2019-03-03T07:21:45.258Z,99.9
2019-03-03T07:22:54.597Z,99.9
2019-03-03T07:24:03.912Z,99.9
2019-03-03T07:25:13.293Z,99.9
2019-03-03T07:26:22.595Z,99.9
2019-03-03T07:27:31.953Z,99.9
2019-03-03T07:28:41.297Z,99.9
2019-03-03T07:29:50.730Z,99.9
2019-03-03T07:30:59.989Z,99.9
2019-03-03T07:32:09.358Z,99.9
2019-03-03T07:33:18.697Z,99.9
2019-03-03T07:34:28.053Z,99.9
2019-03-03T07:35:37.404Z,99.9
2019-03-03T07:36:46.927Z,99.9
2019-03-03T07:37:56.096Z,99.9
2019-03-03T07:39:05.466Z,99.9
2019-03-03T07:40:14.836Z,99.9
2019-03-03T07:41:24.182Z,99.9
2019-03-03T07:42:33.526Z,99.9
2019-03-03T07:43:42.881Z,99.9
2019-03-03T07:44:52.373Z,99.9
2019-03-03T07:46:01.623Z,99.9
2019-03-03T07:47:10.957Z,99.9
2019-03-03T07:48:20.325Z,99.9
2019-03-03T07:49:29.691Z,99.9
2019-03-03T07:50:39.068Z,99.9
2019-03-03T07:51:48.408Z,99.9
2019-03-03T07:52:57.773Z,99.3
2019-03-03T07:54:07.267Z,99.9
2019-03-03T07:55:16.509Z,99.7
2019-03-03T07:56:25.909Z,98.5
2019-03-03T07:57:35.228Z,98
2019-03-03T07:58:44.585Z,97.5
2019-03-03T07:59:53.972Z,98
2019-03-03T08:01:03.409Z,97.3
2019-03-03T08:02:12.725Z,97.5
2019-03-03T08:03:22.095Z,98
2019-03-03T08:04:31.524Z,95.9
2019-03-03T08:05:40.838Z,96.5
2019-03-03T08:06:50.324Z,95.5
2019-03-03T08:07:59.629Z,95.1
2019-03-03T08:09:08.956Z,94.7
2019-03-03T08:10:18.345Z,95.7
2019-03-03T08:11:27.692Z,95.9
2019-03-03T08:12:37.062Z,94.4
2019-03-03T08:13:46.454Z,93.7
2019-03-03T08:14:55.815Z,92.2
2019-03-03T08:16:05.198Z,93.8
2019-03-03T08:17:14.639Z,92.6
2019-03-03T08:18:24.000Z,92.2
2019-03-03T08:19:33.332Z,91.2
2019-03-03T08:20:42.721Z,91.7
2019-03-03T08:21:52.101Z,91.3
2019-03-03T08:23:01.485Z,90.2
2019-03-03T08:24:10.923Z,90.6
2019-03-03T08:25:20.315Z,90.8
2019-03-03T08:26:29.635Z,91.7
2019-03-03T08:27:39.034Z,88.8
2019-03-03T08:28:48.419Z,90.9
2019-03-03T08:29:57.807Z,90
2019-03-03T08:31:07.203Z,87.8
2019-03-03T08:32:16.589Z,86.4
2019-03-03T08:33:25.977Z,87.1
2019-03-03T08:34:35.368Z,85.9
2019-03-03T08:35:44.759Z,87.2
2019-03-03T08:36:54.211Z,86.4
2019-03-03T08:38:03.595Z,88.5
2019-03-03T08:39:12.954Z,86.3
2019-03-03T08:40:22.358Z,84.1
2019-03-03T08:41:31.729Z,80.9
2019-03-03T08:42:41.171Z,84
2019-03-03T08:43:50.511Z,80.9
2019-03-03T08:44:59.919Z,81.3
2019-03-03T08:46:09.385Z,84
2019-03-03T08:47:18.694Z,79.4
2019-03-03T08:48:28.118Z,80.2
2019-03-03T08:49:37.527Z,84.2
2019-03-03T08:50:46.895Z,83.6
2019-03-03T08:51:56.277Z,84.1
2019-03-03T08:53:05.672Z,82.7
2019-03-03T08:54:15.075Z,79
2019-03-03T08:55:24.478Z,80.8
2019-03-03T08:56:33.880Z,81.3
2019-03-03T08:57:43.307Z,79.3
2019-03-03T08:58:52.688Z,83.9
2019-03-03T09:00:02.099Z,89.8
2019-03-03T09:01:11.535Z,95.4
2019-03-03T09:02:20.870Z,95.9
2019-03-03T09:03:30.283Z,95.2
2019-03-03T09:04:39.694Z,93.9
2019-03-03T09:05:49.077Z,96.4
2019-03-03T09:06:58.471Z,96.4
2019-03-03T09:08:07.877Z,94.2
2019-03-03T09:09:17.247Z,93.1
2019-03-03T09:10:26.642Z,93.1
2019-03-03T09:11:36.043Z,93.1
2019-03-03T09:12:45.495Z,93.2
2019-03-03T09:13:54.815Z,91.7
2019-03-03T09:15:04.212Z,93.3
2019-03-03T09:16:13.611Z,90.8
2019-03-03T09:17:23.019Z,91
2019-03-03T09:18:32.405Z,89.7
2019-03-03T09:19:41.764Z,88.4
2019-03-03T09:20:51.157Z,89.4
2019-03-03T09:22:00.542Z,90.6
2019-03-03T09:23:10.028Z,88.4
2019-03-03T09:24:19.322Z,89
2019-03-03T09:25:28.723Z,91
2019-03-03T09:26:38.103Z,87.8
2019-03-03T09:27:47.556Z,87.6
2019-03-03T09:28:56.949Z,89.1
2019-03-03T09:30:06.278Z,83.9
2019-03-03T09:31:15.741Z,81
2019-03-03T09:32:25.076Z,84
2019-03-03T09:33:34.461Z,80.3
2019-03-03T09:34:43.855Z,79.4
2019-03-03T09:35:53.245Z,78.9
2019-03-03T09:38:12.075Z,81
2019-03-03T09:39:21.505Z,79.2
2019-03-03T09:40:30.847Z,78.3
2019-03-03T09:41:40.236Z,77.6
2019-03-03T09:42:49.696Z,75.7
2019-03-03T09:43:59.058Z,77.6
2019-03-03T09:45:08.477Z,75
2019-03-03T09:46:17.861Z,75.5
2019-03-03T09:47:27.247Z,75.7
2019-03-03T09:48:36.700Z,74.2
2019-03-03T09:49:46.054Z,79.2
2019-03-03T09:50:55.460Z,80.7
2019-03-03T09:52:04.874Z,82.5
2019-03-03T09:53:14.278Z,83
2019-03-03T09:54:23.681Z,83.7
2019-03-03T09:55:33.169Z,80
2019-03-03T09:56:42.541Z,80.7
2019-03-03T09:57:51.906Z,77.5
2019-03-03T09:59:01.458Z,79.3
2019-03-03T10:00:10.722Z,78
2019-03-03T10:01:20.117Z,78.3
2019-03-03T10:02:29.532Z,76.6
2019-03-03T10:03:38.958Z,78.6
2019-03-03T10:04:48.343Z,78.4
2019-03-03T10:05:57.767Z,79.3
2019-03-03T10:07:07.159Z,77.4
2019-03-03T10:08:16.574Z,78.9
2019-03-03T10:09:25.966Z,77.4
2019-03-03T10:10:35.400Z,76.6
2019-03-03T10:11:45.658Z,77.3
2019-03-03T10:12:54.192Z,74.3
2019-03-03T10:14:03.653Z,75.9
2019-03-03T10:15:13.029Z,78.5
2019-03-03T10:16:22.479Z,76.1
2019-03-03T10:17:31.868Z,76.1
2019-03-03T10:18:41.249Z,74.2
2019-03-03T10:19:50.659Z,77
2019-03-03T10:21:00.086Z,79.4
2019-03-03T10:22:09.530Z,81
2019-03-03T10:23:18.907Z,89.4
2019-03-03T10:24:28.298Z,89.4
2019-03-03T10:25:37.714Z,89.7
2019-03-03T10:26:47.122Z,87.4
2019-03-03T10:27:56.633Z,88
2019-03-03T10:29:05.944Z,84.3
2019-03-03T10:30:15.396Z,84.7
2019-03-03T10:31:24.831Z,89
2019-03-03T10:32:34.273Z,91.7
2019-03-03T10:33:43.624Z,89.4
2019-03-03T10:34:53.058Z,90.7
2019-03-03T10:36:02.401Z,88.3
2019-03-03T10:37:11.811Z,90.2
2019-03-03T10:38:21.199Z,88.1
2019-03-03T10:39:30.611Z,89.3
2019-03-03T10:40:40.017Z,89.8
2019-03-03T10:41:49.407Z,90.4
2019-03-03T10:42:58.956Z,89.9
2019-03-03T10:44:08.224Z,90.1
2019-03-03T10:45:17.621Z,91.5
2019-03-03T10:46:27.031Z,99.9
2019-03-03T10:47:36.465Z,91.9
2019-03-03T10:48:45.836Z,94.7
2019-03-03T10:49:55.268Z,94
2019-03-03T10:51:04.656Z,94.6
2019-03-03T10:52:14.069Z,93.4
2019-03-03T10:53:23.455Z,95.2
2019-03-03T10:54:32.897Z,96
2019-03-03T10:55:42.283Z,95.3
2019-03-03T10:56:51.679Z,95.1
2019-03-03T10:58:01.096Z,94.9
2019-03-03T10:59:10.507Z,93.1
2019-03-03T11:00:19.952Z,94.1
2019-03-03T11:01:29.354Z,93.4
2019-03-03T11:02:39.031Z,94.2
2019-03-03T11:03:48.137Z,92.9
2019-03-03T11:04:57.543Z,93.5
2019-03-03T11:06:07.119Z,94.2
2019-03-03T11:07:16.454Z,92.6
2019-03-03T11:08:25.780Z,91.3
2019-03-03T11:09:35.205Z,92
2019-03-03T11:10:44.623Z,90.8
2019-03-03T11:11:54.059Z,89.1
2019-03-03T11:13:03.514Z,89.1
2019-03-03T11:14:12.890Z,85.7
2019-03-03T11:15:22.285Z,85.8
2019-03-03T11:16:31.704Z,88.2
2019-03-03T11:17:41.130Z,87.8
2019-03-03T11:18:56.397Z,84.8
2019-03-03T11:19:59.959Z,85.2
2019-03-03T11:21:09.421Z,84.7
2019-03-03T11:22:18.826Z,83.7
2019-03-03T11:23:28.249Z,84.7
2019-03-03T11:24:37.607Z,82.3
2019-03-03T11:25:47.029Z,83.6
2019-03-03T11:26:56.448Z,81.2
2019-03-03T11:28:05.868Z,82.4
2019-03-03T11:29:15.286Z,78
2019-03-03T11:30:24.697Z,76.1
2019-03-03T11:31:34.116Z,76.7
2019-03-03T11:32:43.543Z,75.8
2019-03-03T11:33:52.960Z,78.7
2019-03-03T11:35:02.417Z,75.5
2019-03-03T11:36:11.813Z,74.6
2019-03-03T11:37:21.233Z,77.7
2019-03-03T11:38:30.643Z,79.6
2019-03-03T11:39:40.061Z,79.7
2019-03-03T11:40:49.490Z,82.3
2019-03-03T11:41:58.927Z,79.7
2019-03-03T11:43:08.340Z,82.5
2019-03-03T11:44:17.743Z,85.9
2019-03-03T11:45:27.247Z,83.7
2019-03-03T11:46:36.599Z,84.7
2019-03-03T11:47:46.014Z,84.3
2019-03-03T11:48:55.459Z,83
2019-03-03T11:50:04.989Z,82.8
2019-03-03T11:51:14.276Z,82.8
2019-03-03T11:52:23.718Z,85.8
2019-03-03T11:53:33.133Z,86.9
2019-03-03T11:54:42.549Z,87.3
2019-03-03T11:55:52.011Z,91.8
2019-03-03T11:57:01.435Z,92
2019-03-03T11:58:10.809Z,93
2019-03-03T11:59:20.225Z,94.3
2019-03-03T12:00:29.644Z,95
2019-03-03T12:01:39.093Z,94.7
2019-03-03T12:02:54.319Z,96.3
2019-03-03T12:03:57.906Z,96.9
2019-03-03T12:05:07.301Z,95.6
2019-03-03T12:06:16.730Z,97.9
2019-03-03T12:07:26.233Z,98.7
2019-03-03T12:08:35.546Z,99.1
2019-03-03T12:09:44.945Z,99.8
2019-03-03T12:10:54.386Z,99.9
2019-03-03T12:12:03.805Z,97.6
2019-03-03T12:13:14.697Z,99.9
2019-03-03T12:14:22.585Z,99.9
2019-03-03T12:15:31.998Z,99.9
2019-03-03T12:16:41.415Z,99.9
2019-03-03T12:17:50.784Z,99.9
2019-03-03T12:19:01.858Z,99.9
2019-03-03T12:20:09.596Z,99.9
2019-03-03T12:21:18.978Z,99.9
2019-03-03T12:22:28.446Z,99.9
2019-03-03T12:23:37.788Z,99.9
2019-03-03T12:24:47.191Z,99.9
2019-03-03T12:25:56.635Z,99.9
2019-03-03T12:27:05.982Z,99.9
2019-03-03T12:28:15.425Z,99.9
2019-03-03T12:29:24.777Z,99.9
2019-03-03T12:30:34.254Z,99.9
2019-03-03T12:31:43.582Z,99.9
2019-03-03T12:32:52.984Z,99.9
2019-03-03T12:34:02.426Z,99.9
2019-03-03T12:35:11.784Z,99.9
2019-03-03T12:36:21.211Z,99.9
2019-03-03T12:37:30.586Z,99.9
2019-03-03T12:38:39.983Z,99.9
2019-03-03T12:39:49.375Z,99.9
2019-03-03T12:40:58.774Z,99.9
2019-03-03T12:42:08.174Z,99.9
2019-03-03T12:43:17.608Z,99.9
2019-03-03T12:44:26.982Z,99.9
2019-03-03T12:45:36.509Z,99.9
2019-03-03T12:46:45.785Z,99.9
2019-03-03T12:47:55.197Z,99.9
2019-03-03T12:49:04.614Z,99.9
2019-03-03T12:50:14.014Z,99.9
2019-03-03T12:51:23.460Z,99.9
2019-03-03T12:52:32.801Z,99.9
2019-03-03T12:53:42.219Z,99.9
2019-03-03T12:54:51.635Z,99.9
2019-03-03T12:56:01.010Z,99.9
2019-03-03T12:57:10.434Z,99.9
2019-03-03T12:58:19.862Z,99.9
2019-03-03T12:59:29.242Z,99.9
2019-03-03T13:00:38.652Z,99.9
2019-03-03T13:01:48.537Z,99.9
2019-03-03T13:02:57.473Z,99.9
2019-03-03T13:04:06.873Z,99.9
2019-03-03T13:05:16.400Z,99.9
2019-03-03T13:06:25.716Z,99.9
2019-03-03T13:07:35.118Z,99.9
2019-03-03T13:08:44.506Z,99.9
2019-03-03T13:09:53.908Z,99.9
2019-03-03T13:11:03.314Z,99.9
2019-03-03T13:12:12.722Z,99.9
2019-03-03T13:13:22.127Z,99.9
2019-03-03T13:14:31.517Z,99.9
2019-03-03T13:15:41.032Z,99.9
2019-03-03T13:16:50.358Z,99.9
2019-03-03T13:17:59.746Z,99.9
2019-03-03T13:19:09.138Z,99.9
2019-03-03T13:20:18.644Z,99.9
2019-03-03T13:21:27.947Z,99.9
2019-03-03T13:22:37.356Z,99.9
2019-03-03T13:23:46.755Z,99.9
2019-03-03T13:24:56.151Z,99.9
2019-03-03T13:26:05.570Z,99.9
2019-03-03T13:27:14.970Z,99.9
2019-03-03T13:28:24.383Z,99.9
2019-03-03T13:29:33.767Z,99.9
2019-03-03T13:30:43.197Z,99.9
2019-03-03T13:31:52.573Z,99.9
2019-03-03T13:33:01.981Z,99.9
2019-03-03T13:34:11.388Z,99.9
2019-03-03T13:35:20.799Z,99.9
2019-03-03T13:36:30.195Z,99.9
2019-03-03T13:37:39.589Z,99.9
2019-03-03T13:38:49.069Z,99.9
2019-03-03T13:39:58.434Z,99.9
2019-03-03T13:41:07.816Z,99.9
2019-03-03T13:42:17.419Z,99.9
2019-03-03T13:43:26.621Z,99.9
2019-03-03T13:44:36.081Z,97.9
2019-03-03T13:45:45.488Z,97.3
2019-03-03T13:46:54.931Z,97.6
2019-03-03T13:48:04.290Z,97.7
2019-03-03T13:49:13.671Z,98.5
2019-03-03T13:50:23.065Z,96.7
2019-03-03T13:51:32.579Z,96.5
2019-03-03T13:52:41.908Z,96.5
2019-03-03T13:53:51.298Z,96.6
2019-03-03T13:55:00.729Z,95.7
2019-03-03T13:56:10.119Z,94.9
2019-03-03T13:57:19.577Z,94.9
2019-03-03T13:58:28.942Z,95.5
2019-03-03T13:59:38.368Z,94.9
2019-03-03T14:00:47.783Z,93.8
2019-03-03T14:01:57.228Z,92.4
2019-03-03T14:03:06.651Z,92.2
2019-03-03T14:04:16.180Z,92.2
2019-03-03T14:05:25.439Z,93.4
2019-03-03T14:06:35.009Z,91.3
2019-03-03T14:07:44.297Z,92.2
2019-03-03T14:08:53.701Z,92.9
2019-03-03T14:10:03.139Z,93
2019-03-03T14:11:12.554Z,91.8
2019-03-03T14:12:21.963Z,92
2019-03-03T14:13:31.567Z,91.9
2019-03-03T14:14:40.867Z,91.5
2019-03-03T14:15:50.234Z,90.5
2019-03-03T14:16:59.664Z,91.6
2019-03-03T14:18:09.154Z,92.2
2019-03-03T14:19:18.496Z,91.5
2019-03-03T14:20:27.914Z,90.8
2019-03-03T14:21:37.344Z,92.5
2019-03-03T14:22:46.758Z,92.8
2019-03-03T14:23:56.175Z,93.2
2019-03-03T14:25:05.620Z,93.7
2019-03-03T14:26:15.023Z,94.9
2019-03-03T14:27:24.437Z,95.4
2019-03-03T14:28:33.859Z,95.8
2019-03-03T14:29:43.278Z,96.5
2019-03-03T14:30:52.685Z,98.1
2019-03-03T14:32:02.156Z,99.3
2019-03-03T14:33:11.528Z,98.6
2019-03-03T14:34:20.975Z,98.5
2019-03-03T14:35:30.352Z,99
2019-03-03T14:36:39.784Z,99.9
2019-03-03T14:37:49.224Z,99.9
2019-03-03T14:38:58.614Z,99.9
2019-03-03T14:40:07.997Z,99.9
2019-03-03T14:41:17.440Z,99.9
2019-03-03T14:42:26.827Z,99.9
2019-03-03T14:43:36.235Z,99.9
2019-03-03T14:44:45.676Z,99.9
2019-03-03T14:45:55.040Z,99.9
2019-03-03T14:47:04.450Z,99.9
2019-03-03T14:48:13.850Z,99.9
2019-03-03T14:49:23.252Z,99.9
2019-03-03T14:50:32.680Z,99.9
2019-03-03T14:51:42.067Z,99.9
2019-03-03T14:52:51.465Z,99.9
2019-03-03T14:54:00.866Z,99.9
2019-03-03T14:55:10.306Z,99.9
2019-03-03T14:56:19.685Z,99.9
2019-03-03T14:57:29.096Z,99.9
2019-03-03T14:58:38.466Z,99.9
2019-03-03T14:59:47.867Z,99.9
2019-03-03T15:00:57.286Z,99.9
2019-03-03T15:02:06.664Z,99.9
2019-03-03T15:03:16.058Z,99.9
2019-03-03T15:04:25.481Z,99.9
2019-03-03T15:05:34.853Z,99.9
2019-03-03T15:06:44.847Z,99.9
2019-03-03T15:07:53.624Z,99.9
2019-03-03T15:09:03.015Z,99.9
2019-03-03T15:10:12.413Z,99.9
2019-03-03T15:11:21.795Z,99.9
2019-03-03T15:12:31.254Z,99.9
2019-03-03T15:13:40.588Z,99.9
2019-03-03T15:14:50.043Z,99.9
2019-03-03T15:15:59.345Z,99.9
2019-03-03T15:17:08.720Z,99.9
2019-03-03T15:18:18.130Z,99.9
2019-03-03T15:19:27.613Z,99.9
2019-03-03T15:20:36.906Z,99.9
2019-03-03T15:21:46.335Z,99.9
2019-03-03T15:22:55.720Z,99.9
2019-03-03T15:24:05.024Z,99.9
2019-03-03T15:25:14.407Z,99.9
2019-03-03T15:26:23.787Z,99.9
2019-03-03T15:27:33.153Z,99.9
2019-03-03T15:28:42.542Z,99.9
2019-03-03T15:29:51.936Z,99.9
2019-03-03T15:31:01.376Z,99.9
2019-03-03T15:32:10.664Z,99.9
2019-03-03T15:33:20.698Z,99.9
2019-03-03T15:34:29.422Z,99.9
2019-03-03T15:35:38.787Z,99.9